createdAt,value
2017-11-22T00:01:18.459Z,89.18
2017-11-22T00:03:45.306Z,88.72
2017-11-22T00:06:12.894Z,88.65
2017-11-22T00:08:39.766Z,88.67
2017-11-22T00:11:06.625Z,88.87
2017-11-22T00:13:33.597Z,88.62
2017-11-22T00:16:00.492Z,87.99
2017-11-22T00:18:27.340Z,88.63
2017-11-22T00:20:54.220Z,89.00
2017-11-22T00:23:21.060Z,88.69
2017-11-22T00:25:47.938Z,88.68
2017-11-22T00:28:14.904Z,88.67
2017-11-22T00:30:41.789Z,88.99
2017-11-22T00:33:09.313Z,88.60
2017-11-22T00:35:36.189Z,89.16
2017-11-22T00:38:03.013Z,89.09
2017-11-22T00:40:30.558Z,88.76
2017-11-22T00:42:57.409Z,88.63
2017-11-22T00:45:24.566Z,88.97
2017-11-22T00:47:51.514Z,88.47
2017-11-22T00:50:18.624Z,88.63
2017-11-22T00:52:45.496Z,88.79
2017-11-22T00:55:12.309Z,88.80
2017-11-22T00:57:39.142Z,89.06
2017-11-22T01:00:06.691Z,88.62
2017-11-22T01:02:33.695Z,88.88
2017-11-22T01:05:00.542Z,87.96
2017-11-22T01:07:28.138Z,88.25
2017-11-22T01:09:54.989Z,88.88
2017-11-22T01:12:21.816Z,88.56
2017-11-22T01:14:48.680Z,88.66
2017-11-22T01:17:15.497Z,88.23
2017-11-22T01:19:42.330Z,88.51
2017-11-22T01:22:09.183Z,88.26
2017-11-22T01:24:36.776Z,88.09
2017-11-22T01:27:03.662Z,88.56
2017-11-22T01:29:31.292Z,88.30
2017-11-22T01:31:58.241Z,88.80
2017-11-22T01:34:25.158Z,88.98
2017-11-22T01:36:52.037Z,88.22
2017-11-22T01:39:18.893Z,88.10
2017-11-22T01:41:45.857Z,88.33
2017-11-22T01:44:12.715Z,87.48
2017-11-22T01:46:39.609Z,88.20
2017-11-22T01:49:06.482Z,88.28
2017-11-22T01:51:33.471Z,88.39
2017-11-22T01:54:00.364Z,87.81
2017-11-22T01:56:27.251Z,87.96
2017-11-22T01:58:54.127Z,88.84
2017-11-22T02:01:20.972Z,88.35
2017-11-22T02:03:47.809Z,88.06
2017-11-22T02:06:14.673Z,88.18
2017-11-22T02:08:41.549Z,88.33
2017-11-22T02:11:08.403Z,87.72
2017-11-22T02:13:35.294Z,88.22
2017-11-22T02:16:02.156Z,88.14
2017-11-22T02:18:29.083Z,87.69
2017-11-22T02:20:55.945Z,88.22
2017-11-22T02:23:22.790Z,87.64
2017-11-22T02:25:49.637Z,88.08
2017-11-22T02:28:17.233Z,87.90
2017-11-22T02:30:44.095Z,87.89
2017-11-22T02:33:10.991Z,87.73
2017-11-22T02:35:37.888Z,87.77
2017-11-22T02:38:05.506Z,87.39
2017-11-22T02:40:33.099Z,87.74
2017-11-22T02:42:59.937Z,87.12
2017-11-22T02:45:26.852Z,87.28
2017-11-22T02:47:53.721Z,87.61
2017-11-22T02:50:20.587Z,88.03
2017-11-22T02:52:47.460Z,87.44
2017-11-22T02:55:15.116Z,87.28
2017-11-22T02:57:42.034Z,87.64
2017-11-22T03:00:08.923Z,87.29
2017-11-22T03:02:35.787Z,87.86
2017-11-22T03:05:02.695Z,87.37
2017-11-22T03:07:30.428Z,87.70
2017-11-22T03:09:57.273Z,87.78
2017-11-22T03:12:24.135Z,87.23
2017-11-22T03:14:50.995Z,87.06
2017-11-22T03:17:17.838Z,87.27
2017-11-22T03:19:44.653Z,87.36
2017-11-22T03:22:11.520Z,86.99
2017-11-22T03:24:38.348Z,87.23
2017-11-22T03:27:05.238Z,85.86
2017-11-22T03:29:32.127Z,86.91
2017-11-22T03:31:59.718Z,86.92
2017-11-22T03:34:26.560Z,86.74
2017-11-22T03:36:54.182Z,85.97
2017-11-22T03:39:21.069Z,86.98
2017-11-22T03:41:47.965Z,86.53
2017-11-22T03:44:15.559Z,86.22
2017-11-22T03:46:42.440Z,85.37
2017-11-22T03:49:14.137Z,85.81
2017-11-22T03:51:47.073Z,85.15
2017-11-22T03:54:14.693Z,86.17
2017-11-22T03:56:41.589Z,86.25
2017-11-22T03:59:08.495Z,85.62
2017-11-22T04:01:35.343Z,85.41
2017-11-22T04:04:03.025Z,85.54
2017-11-22T04:06:30.621Z,85.88
2017-11-22T04:08:57.458Z,85.69
2017-11-22T04:11:29.900Z,85.89
2017-11-22T04:13:56.765Z,85.77
2017-11-22T04:16:23.608Z,85.65
2017-11-22T04:18:50.433Z,84.79
2017-11-22T04:21:18.090Z,85.40
2017-11-22T04:23:44.908Z,85.67
2017-11-22T04:26:11.782Z,85.07
2017-11-22T04:28:38.703Z,85.21
2017-11-22T04:31:06.289Z,84.37
2017-11-22T04:33:33.142Z,84.48
2017-11-22T04:36:00.748Z,84.62
2017-11-22T04:38:27.602Z,83.95
2017-11-22T04:40:54.465Z,84.74
2017-11-22T04:43:21.311Z,84.49
2017-11-22T04:45:48.231Z,84.44
2017-11-22T04:48:15.125Z,84.16
2017-11-22T04:50:42.777Z,84.02
2017-11-22T04:53:09.676Z,84.22
2017-11-22T04:55:37.313Z,83.62
2017-11-22T04:58:04.230Z,84.55
2017-11-22T05:00:31.079Z,84.50
2017-11-22T05:02:58.713Z,84.10
2017-11-22T05:05:25.607Z,84.12
2017-11-22T05:07:53.276Z,83.95
2017-11-22T05:10:20.214Z,83.91
2017-11-22T05:12:47.072Z,84.13
2017-11-22T05:15:13.924Z,83.73
2017-11-22T05:17:40.788Z,83.94
2017-11-22T05:20:07.618Z,83.99
2017-11-22T05:22:34.488Z,84.01
2017-11-22T05:25:01.323Z,83.61
2017-11-22T05:27:28.913Z,84.04
2017-11-22T05:29:55.724Z,83.62
2017-11-22T05:32:22.601Z,84.24
2017-11-22T05:34:49.469Z,83.89
2017-11-22T05:37:16.322Z,83.85
2017-11-22T05:39:43.188Z,83.67
2017-11-22T05:42:10.052Z,83.76
2017-11-22T05:44:36.891Z,83.77
2017-11-22T05:47:03.738Z,83.15
2017-11-22T05:49:30.640Z,83.20
2017-11-22T05:51:57.485Z,82.87
2017-11-22T05:54:24.424Z,82.66
2017-11-22T05:56:51.354Z,82.92
2017-11-22T05:59:18.206Z,83.38
2017-11-22T06:01:45.785Z,82.33
2017-11-22T06:04:13.412Z,83.08
2017-11-22T06:06:40.299Z,82.66
2017-11-22T06:09:07.164Z,83.16
2017-11-22T06:11:34.024Z,82.35
2017-11-22T06:14:00.865Z,83.08
2017-11-22T06:16:27.755Z,82.88
2017-11-22T06:18:54.600Z,82.20
2017-11-22T06:21:21.453Z,83.03
2017-11-22T06:23:48.314Z,83.02
2017-11-22T06:26:15.256Z,83.04
2017-11-22T06:28:42.191Z,83.10
2017-11-22T06:31:09.818Z,81.88
2017-11-22T06:33:36.675Z,82.62
2017-11-22T06:36:03.546Z,82.29
2017-11-22T06:38:30.471Z,82.99
2017-11-22T06:40:57.396Z,82.70
2017-11-22T06:43:24.473Z,82.41
2017-11-22T06:45:52.118Z,83.15
2017-11-22T06:48:19.020Z,83.38
2017-11-22T06:50:46.626Z,83.36
2017-11-22T06:53:13.492Z,83.37
2017-11-22T06:55:40.397Z,82.73
2017-11-22T06:58:07.271Z,83.17
2017-11-22T07:00:34.146Z,83.16
2017-11-22T07:03:01.752Z,82.87
2017-11-22T07:05:28.644Z,82.93
2017-11-22T07:07:56.463Z,82.80
2017-11-22T07:10:23.355Z,82.61
2017-11-22T07:12:50.203Z,83.23
2017-11-22T07:15:17.061Z,82.78
2017-11-22T07:17:43.890Z,82.78
2017-11-22T07:20:10.740Z,82.77
2017-11-22T07:22:37.766Z,82.83
2017-11-22T07:25:05.129Z,82.26
2017-11-22T07:27:31.968Z,82.53
2017-11-22T07:29:59.583Z,82.60
2017-11-22T07:32:26.445Z,82.76
2017-11-22T07:34:53.301Z,82.46
2017-11-22T07:37:26.172Z,81.99
2017-11-22T07:39:53.750Z,82.10
2017-11-22T07:42:21.533Z,81.53
2017-11-22T07:44:49.165Z,82.39
2017-11-22T07:47:17.921Z,82.58
2017-11-22T07:49:44.808Z,82.82
2017-11-22T07:52:14.602Z,82.50
2017-11-22T07:54:44.089Z,82.37
2017-11-22T07:57:11.034Z,81.85
2017-11-22T07:59:37.888Z,82.21
2017-11-22T08:02:04.764Z,81.92
2017-11-22T08:04:31.945Z,81.95
2017-11-22T08:06:58.820Z,81.79
2017-11-22T08:09:25.674Z,82.20
2017-11-22T08:11:52.539Z,81.86
2017-11-22T08:14:19.387Z,81.33
2017-11-22T08:16:46.268Z,81.01
2017-11-22T08:19:13.124Z,81.98
2017-11-22T08:21:41.262Z,81.46
2017-11-22T08:24:08.128Z,81.13
2017-11-22T08:26:34.985Z,81.86
2017-11-22T08:29:01.872Z,81.53
2017-11-22T08:31:28.741Z,81.16
2017-11-22T08:33:55.613Z,81.28
2017-11-22T08:36:22.471Z,81.20
2017-11-22T08:38:49.316Z,80.92
2017-11-22T08:41:16.162Z,79.98
2017-11-22T08:43:42.995Z,80.52
2017-11-22T08:46:09.878Z,80.87
2017-11-22T08:48:36.710Z,80.85
2017-11-22T08:51:04.286Z,80.67
2017-11-22T08:53:31.213Z,80.39
2017-11-22T08:56:04.103Z,80.87
2017-11-22T08:58:31.012Z,80.44
2017-11-22T09:00:57.983Z,80.47
2017-11-22T09:03:25.587Z,80.59
2017-11-22T09:29:44.936Z,79.48
2017-11-22T09:32:17.715Z,79.61
2017-11-22T09:34:51.375Z,79.49
2017-11-22T09:37:18.204Z,79.24
2017-11-22T09:39:45.789Z,79.21
2017-11-22T09:42:13.647Z,79.13
2017-11-22T09:44:41.202Z,79.08
2017-11-22T09:47:08.008Z,79.23
2017-11-22T09:49:34.829Z,78.05
2017-11-22T09:52:01.640Z,79.03
2017-11-22T09:54:28.458Z,78.37
2017-11-22T09:56:55.286Z,78.32
2017-11-22T09:59:22.153Z,78.67
2017-11-22T10:01:49.040Z,78.46
2017-11-22T10:04:15.882Z,79.01
2017-11-22T10:06:42.716Z,78.29
2017-11-22T10:09:09.552Z,78.49
2017-11-22T10:11:36.368Z,78.13
2017-11-22T10:14:03.819Z,77.44
2017-11-22T10:16:30.663Z,76.93
2017-11-22T10:18:57.521Z,77.79
2017-11-22T10:21:27.364Z,75.82
2017-11-22T10:23:54.295Z,76.61
2017-11-22T10:26:27.788Z,76.16
2017-11-22T10:28:54.688Z,77.11
2017-11-22T10:31:25.579Z,76.59
2017-11-22T10:33:52.460Z,76.47
2017-11-22T10:36:19.365Z,76.58
2017-11-22T10:38:46.218Z,75.55
2017-11-22T10:41:13.097Z,75.17
2017-11-22T10:43:39.932Z,75.95
2017-11-22T10:46:07.511Z,76.87
2017-11-22T10:48:35.143Z,75.92
2017-11-22T10:51:01.993Z,74.65
2017-11-22T10:53:28.892Z,76.50
2017-11-22T10:55:55.792Z,75.64
2017-11-22T10:58:22.652Z,74.70
2017-11-22T11:00:49.550Z,74.31
2017-11-22T11:03:16.416Z,75.01
2017-11-22T11:05:43.288Z,75.66
2017-11-22T11:08:10.152Z,73.92
2017-11-22T11:10:37.061Z,75.07
2017-11-22T11:13:03.898Z,74.84
2017-11-22T11:15:31.529Z,73.90
2017-11-22T11:17:58.366Z,74.53
2017-11-22T11:20:25.262Z,74.83
2017-11-22T11:22:52.105Z,75.79
2017-11-22T11:25:19.674Z,74.29
2017-11-22T11:27:46.576Z,72.01
2017-11-22T11:30:13.407Z,73.47
2017-11-22T11:32:40.278Z,73.51
2017-11-22T11:35:07.122Z,72.85
2017-11-22T11:37:34.021Z,72.10
2017-11-22T11:40:00.945Z,72.90
2017-11-22T11:42:27.920Z,72.50
2017-11-22T11:44:55.552Z,72.44
2017-11-22T11:47:22.484Z,72.51
2017-11-22T11:49:49.385Z,71.48
2017-11-22T11:52:16.355Z,71.44
2017-11-22T11:54:44.020Z,71.81
2017-11-22T11:57:10.897Z,69.94
2017-11-22T11:59:37.824Z,68.06
2017-11-22T12:02:04.693Z,68.69
2017-11-22T12:04:31.623Z,69.43
2017-11-22T12:06:58.483Z,69.49
2017-11-22T12:09:25.298Z,67.42
2017-11-22T12:11:52.883Z,68.75
2017-11-22T12:14:20.458Z,69.08
2017-11-22T12:16:48.055Z,65.80
2017-11-22T12:19:14.976Z,67.69
2017-11-22T12:21:47.957Z,68.20
2017-11-22T12:24:19.901Z,67.53
2017-11-22T12:26:46.737Z,68.05
2017-11-22T12:29:14.338Z,67.32
2017-11-22T12:31:41.218Z,66.89
2017-11-22T12:34:08.098Z,65.04
2017-11-22T12:36:34.950Z,67.13
2017-11-22T12:39:01.850Z,65.24
2017-11-22T12:41:28.677Z,66.46
2017-11-22T12:43:55.504Z,66.40
2017-11-22T12:46:22.388Z,65.58
2017-11-22T12:48:49.218Z,64.61
2017-11-22T12:51:16.869Z,64.81
2017-11-22T12:53:43.751Z,64.58
2017-11-22T12:56:11.313Z,64.91
2017-11-22T12:58:38.219Z,64.88
2017-11-22T13:01:05.048Z,64.80
2017-11-22T13:03:31.977Z,64.33
2017-11-22T13:05:58.818Z,64.94
2017-11-22T13:08:25.707Z,63.42
2017-11-22T13:10:57.347Z,65.53
2017-11-22T13:13:25.110Z,65.10
2017-11-22T13:15:52.052Z,64.62
2017-11-22T13:18:19.606Z,64.00
2017-11-22T13:20:46.470Z,64.37
2017-11-22T13:23:13.317Z,63.55
2017-11-22T13:25:40.146Z,64.99
2017-11-22T13:28:06.993Z,63.71
2017-11-22T13:30:33.881Z,63.80
2017-11-22T13:33:00.725Z,62.41
2017-11-22T13:35:27.585Z,63.20
2017-11-22T13:37:54.529Z,63.29
2017-11-22T13:40:22.188Z,64.90
2017-11-22T13:42:49.156Z,63.80
2017-11-22T13:45:16.066Z,61.35
2017-11-22T13:47:42.960Z,63.14
2017-11-22T13:50:09.857Z,63.81
2017-11-22T13:52:37.648Z,62.49
2017-11-22T13:55:04.494Z,63.65
2017-11-22T13:57:32.129Z,63.45
2017-11-22T13:59:59.020Z,64.20
2017-11-22T14:02:25.911Z,64.37
2017-11-22T14:04:53.523Z,64.68
2017-11-22T14:07:20.421Z,63.44
2017-11-22T14:09:47.297Z,65.88
2017-11-22T14:12:14.231Z,64.26
2017-11-22T14:14:41.151Z,63.95
2017-11-22T14:17:08.042Z,63.81
2017-11-22T14:19:34.931Z,63.25
2017-11-22T14:22:01.814Z,62.44
2017-11-22T14:24:29.447Z,63.67
2017-11-22T14:26:56.334Z,63.89
2017-11-22T14:29:23.222Z,63.60
2017-11-22T14:31:50.841Z,63.60
2017-11-22T14:34:17.740Z,65.17
2017-11-22T14:36:44.665Z,65.53
2017-11-22T14:39:11.546Z,65.26
2017-11-22T14:41:38.468Z,65.17
2017-11-22T14:44:05.393Z,65.63
2017-11-22T14:46:32.315Z,66.25
2017-11-22T14:48:59.959Z,66.44
2017-11-22T14:51:27.601Z,66.07
2017-11-22T14:53:54.502Z,66.29
2017-11-22T14:56:22.197Z,66.46
2017-11-22T14:58:49.107Z,66.14
2017-11-22T15:01:16.112Z,68.48
2017-11-22T15:03:43.722Z,68.31
2017-11-22T15:06:10.632Z,68.63
2017-11-22T15:08:37.561Z,69.31
2017-11-22T15:11:04.506Z,69.57
2017-11-22T15:13:31.466Z,69.08
2017-11-22T15:15:58.472Z,69.64
2017-11-22T15:18:25.357Z,69.52
2017-11-22T15:20:53.009Z,68.91
2017-11-22T15:23:19.947Z,69.30
2017-11-22T15:25:46.880Z,70.55
2017-11-22T15:28:14.493Z,69.92
2017-11-22T15:30:41.388Z,69.23
2017-11-22T15:33:08.369Z,70.12
2017-11-22T15:35:36.049Z,70.78
2017-11-22T15:38:02.911Z,70.99
2017-11-22T15:40:29.934Z,71.20
2017-11-22T15:42:56.895Z,70.91
2017-11-22T15:45:23.813Z,70.87
2017-11-22T15:47:50.714Z,71.34
2017-11-22T15:50:17.587Z,71.20
2017-11-22T15:52:44.439Z,71.59
2017-11-22T15:55:11.305Z,71.61
2017-11-22T15:57:38.195Z,71.56
2017-11-22T16:00:05.519Z,71.22
2017-11-22T16:02:33.031Z,71.70
2017-11-22T16:04:59.929Z,71.93
2017-11-22T16:07:27.494Z,72.06
2017-11-22T16:09:54.369Z,72.10
2017-11-22T16:12:22.018Z,71.84
2017-11-22T16:14:48.960Z,72.30
2017-11-22T16:17:15.840Z,72.49
2017-11-22T16:19:42.736Z,72.41
2017-11-22T16:22:10.399Z,72.56
2017-11-22T16:24:38.372Z,72.52
2017-11-22T16:27:05.717Z,72.74
2017-11-22T16:29:32.664Z,72.38
2017-11-22T16:31:59.542Z,72.68
2017-11-22T16:34:27.062Z,72.94
2017-11-22T16:36:54.017Z,72.86
2017-11-22T16:39:20.951Z,72.44
2017-11-22T16:41:47.864Z,72.64
2017-11-22T16:44:15.508Z,72.85
2017-11-22T16:46:42.599Z,72.77
2017-11-22T16:49:09.543Z,72.25
2017-11-22T16:51:36.381Z,72.42
2017-11-22T16:54:03.309Z,72.57
2017-11-22T16:56:30.997Z,72.36
2017-11-22T16:58:57.821Z,72.77
2017-11-22T17:01:24.712Z,72.36
2017-11-22T17:03:52.336Z,72.94
2017-11-22T17:06:19.182Z,72.48
2017-11-22T17:08:46.043Z,72.47
2017-11-22T17:11:12.945Z,72.64
2017-11-22T17:13:39.817Z,72.39
2017-11-22T17:16:06.737Z,71.58
2017-11-22T17:18:33.642Z,71.92
2017-11-22T17:21:00.517Z,72.09
2017-11-22T17:23:28.126Z,71.67
2017-11-22T17:25:55.231Z,71.69
2017-11-22T17:28:22.084Z,72.20
2017-11-22T17:30:49.017Z,71.73
2017-11-22T17:33:15.844Z,72.00
2017-11-22T17:35:44.355Z,71.91
2017-11-22T17:38:11.297Z,71.08
2017-11-22T17:40:38.162Z,72.18
2017-11-22T17:43:05.070Z,71.90
2017-11-22T17:45:31.972Z,72.06
2017-11-22T17:47:58.878Z,71.42
2017-11-22T17:50:25.719Z,71.88
2017-11-22T17:52:54.356Z,71.44
2017-11-22T17:55:21.276Z,71.98
2017-11-22T17:57:48.366Z,72.50
2017-11-22T18:00:15.217Z,71.83
2017-11-22T18:02:42.817Z,71.96
2017-11-22T18:05:09.711Z,71.38
2017-11-22T18:07:37.096Z,71.36
2017-11-22T18:10:05.685Z,71.46
2017-11-22T18:12:33.453Z,71.77
2017-11-22T18:15:00.365Z,71.63
2017-11-22T18:17:27.211Z,71.62
2017-11-22T18:19:54.104Z,71.57
2017-11-22T18:22:21.769Z,71.18
2017-11-22T18:24:48.702Z,71.51
2017-11-22T18:27:15.564Z,70.53
2017-11-22T18:29:42.505Z,71.32
2017-11-22T18:32:09.355Z,70.94
2017-11-22T18:34:36.776Z,70.88
2017-11-22T18:37:03.650Z,70.54
2017-11-22T18:39:30.524Z,70.35
2017-11-22T18:41:59.688Z,70.48
2017-11-22T18:44:26.588Z,70.65
2017-11-22T18:46:53.498Z,69.86
2017-11-22T18:49:20.625Z,70.57
2017-11-22T18:51:48.364Z,70.08
2017-11-22T18:54:17.032Z,70.08
2017-11-22T18:56:43.948Z,70.35
2017-11-22T18:59:16.195Z,70.39
2017-11-22T19:01:43.196Z,69.76
2017-11-22T19:04:10.086Z,69.46
2017-11-22T19:06:37.962Z,69.63
2017-11-22T19:09:04.854Z,69.63
2017-11-22T19:11:31.750Z,69.62
2017-11-22T19:13:58.605Z,68.99
2017-11-22T19:16:25.481Z,68.61
2017-11-22T19:18:52.481Z,67.92
2017-11-22T19:21:20.140Z,69.43
2017-11-22T19:23:47.293Z,68.83
2017-11-22T19:26:14.588Z,68.27
2017-11-22T19:28:42.150Z,68.00
2017-11-22T19:31:11.103Z,67.41
2017-11-22T19:46:57.990Z,67.03
2017-11-22T19:49:24.855Z,67.40
2017-11-22T19:51:52.731Z,67.38
2017-11-22T19:54:19.620Z,67.24
2017-11-22T19:56:46.488Z,67.96
2017-11-22T19:59:13.341Z,68.27
2017-11-22T20:01:41.484Z,68.31
2017-11-22T20:04:10.508Z,68.29
2017-11-22T20:06:37.935Z,68.51
2017-11-22T20:11:37.606Z,68.73
2017-11-22T20:14:05.530Z,68.97
2017-11-22T20:16:32.612Z,69.13
2017-11-22T20:18:59.886Z,69.12
2017-11-22T20:21:26.833Z,68.85
2017-11-22T20:23:54.576Z,68.33
2017-11-22T20:26:24.122Z,68.68
2017-11-22T20:28:51.819Z,68.54
2017-11-22T20:31:19.472Z,67.77
2017-11-22T20:33:46.658Z,68.11
2017-11-22T20:36:14.612Z,68.35
2017-11-22T20:38:41.514Z,67.60
2017-11-22T20:41:09.164Z,68.20
2017-11-22T20:43:36.074Z,67.83
2017-11-22T20:46:03.125Z,67.38
2017-11-22T20:48:30.809Z,67.99
2017-11-22T20:51:00.128Z,67.65
2017-11-22T20:53:27.030Z,67.78
2017-11-22T20:55:53.977Z,67.71
2017-11-22T20:58:20.896Z,67.63
2017-11-22T21:00:48.561Z,67.62
2017-11-22T21:03:15.516Z,67.00
2017-11-22T21:05:42.379Z,67.40
2017-11-22T21:08:09.293Z,67.20
2017-11-22T21:10:36.177Z,67.00
2017-11-22T21:13:03.094Z,67.06
2017-11-22T21:15:30.778Z,65.66
2017-11-22T21:17:58.379Z,67.28
2017-11-22T21:20:25.233Z,67.62
2017-11-22T21:22:52.091Z,67.53
2017-11-22T21:25:18.969Z,68.21
2017-11-22T21:27:45.808Z,68.20
2017-11-22T21:30:12.685Z,68.11
2017-11-22T21:32:39.549Z,68.14
2017-11-22T21:35:06.458Z,68.70
2017-11-22T21:37:33.321Z,67.97
2017-11-22T21:40:00.191Z,67.08
2017-11-22T21:42:27.045Z,68.69
2017-11-22T21:44:53.894Z,67.51
2017-11-22T21:47:21.021Z,67.47
2017-11-22T21:49:47.875Z,67.69
2017-11-22T21:52:16.056Z,68.11
2017-11-22T21:54:43.844Z,65.78
2017-11-22T21:57:11.420Z,66.80
2017-11-22T21:59:39.977Z,66.81
2017-11-22T22:02:06.829Z,66.58
2017-11-22T22:04:33.650Z,67.38
2017-11-22T22:07:01.226Z,67.62
2017-11-22T22:09:28.057Z,67.94
2017-11-22T22:11:54.857Z,67.76
2017-11-22T22:14:21.667Z,66.52
2017-11-22T22:16:48.524Z,66.74
2017-11-22T22:19:15.683Z,66.21
2017-11-22T22:21:42.690Z,67.09
2017-11-22T22:24:10.413Z,65.42
2017-11-22T22:26:37.245Z,66.96
2017-11-22T22:29:04.819Z,65.65
2017-11-22T22:31:34.785Z,65.87
2017-11-22T22:34:02.430Z,65.91
2017-11-22T22:36:30.007Z,65.69
2017-11-22T22:38:57.618Z,65.37
2017-11-22T22:41:24.449Z,63.74
2017-11-22T22:43:56.122Z,66.09
2017-11-22T22:46:24.128Z,66.44
2017-11-22T22:48:50.982Z,64.73
2017-11-22T22:51:17.896Z,65.38
2017-11-22T22:53:44.755Z,66.89
2017-11-22T22:56:13.562Z,66.45
2017-11-22T22:58:41.160Z,67.78
2017-11-22T23:01:08.137Z,67.70
2017-11-22T23:03:36.357Z,66.94
2017-11-22T23:06:03.197Z,67.08
2017-11-22T23:08:30.814Z,65.99
2017-11-22T23:10:58.355Z,64.87
2017-11-22T23:13:26.093Z,66.59
2017-11-22T23:15:52.936Z,66.94
2017-11-22T23:18:19.768Z,66.22
2017-11-22T23:20:46.595Z,66.44
2017-11-22T23:23:13.461Z,65.75
2017-11-22T23:25:40.262Z,66.49
2017-11-22T23:28:07.073Z,65.36
2017-11-22T23:30:33.942Z,65.07
2017-11-22T23:33:01.497Z,65.28
2017-11-22T23:35:28.320Z,65.01
2017-11-22T23:37:55.138Z,65.89
2017-11-22T23:40:22.000Z,65.35
2017-11-22T23:42:48.856Z,64.78
2017-11-22T23:45:15.717Z,65.00
2017-11-22T23:47:43.336Z,65.21
2017-11-22T23:50:10.349Z,65.00
2017-11-22T23:52:37.286Z,65.00
2017-11-22T23:55:04.492Z,64.85
2017-11-22T23:57:32.261Z,64.94
